臺北終端管制區 - 桃園掃描雷達席

METAR RCTP 021900Z 09004KT 9999 FEW012 13/09 Q1022 NOSIG RMK A3019=

站台狀態:Online
最後更新:2021-12-03 03:00:01